Flight Track Log - Related Links

Times and Time Zones

All times are in EDT time to prevent confusion due to time zone crossing. See the ASH2712 flight status page for this flight to view local times or setup timezone preferences in your user account.

Time Position Orientation Groundspeed Altitude Reporting Facility
EDT Latitude Longitude Course Direction KTS MPH feet Rate Location/Type
Wed 12:55:22 PM 37.7319 -122.2600 141° Southeast 170 196 1,400  Level Oakland Center
Wed 12:56:23 PM 37.7617 -122.3142 305° West 187 215 3,900 2,585 Climbing Oakland Center
Wed 12:57:25 PM 37.7294 -122.3725 235° Southwest 224 258 6,700 2,244 Climbing Oakland Center
Wed 12:58:00 PM 37.3883 -122.2791 117° Southeast  Level FlightAware Approximate
Wed 12:58:26 PM 37.6575 -122.3956 194° South 257 296 8,500  Level Oakland Center
Wed 12:59:00 PM 37.3062 -122.1677 130° Southeast  Level FlightAware Approximate
Wed 12:59:28 PM 37.5731 -122.4228 194° South 305 351 11,000  Level Oakland Center
Wed 01:00:00 PM 37.2242 -122.0575 141° Southeast  Level FlightAware Approximate
Wed 01:00:29 PM 37.4992 -122.3544 144° Southeast 343 395 13,000  Level Oakland Center
Wed 01:01:31 PM 37.4244 -122.2428 130° Southeast 347 399 15,800 2,293 Climbing Oakland Center
Wed 01:02:32 PM 37.3575 -122.1439 130° Southeast 367 422 17,700 1,869 Climbing Oakland Center
Wed 01:03:33 PM 37.2883 -122.0422 131° Southeast 379 436 19,600 1,854 Climbing Oakland Center
Wed 01:04:35 PM 37.2172 -121.9347 130° Southeast 395 455 21,500 1,805 Climbing Oakland Center
Wed 01:05:36 PM 37.1433 -121.8278 131° Southeast 404 465 23,300 1,610 Climbing Oakland Center
Wed 01:06:38 PM 37.0678 -121.7167 130° Southeast 413 475 24,800 1,355 Climbing Oakland Center
Wed 01:07:40 PM 36.9906 -121.6017 130° Southeast 427 491 26,100 1,561 Climbing Oakland Center
Wed 01:08:41 PM 36.8953 -121.4639 131° Southeast 433 498 28,000 1,512 Climbing Oakland Center
Wed 01:09:43 PM 36.8150 -121.3453 130° Southeast 445 512 29,200 1,171 Climbing Oakland Center
Wed 01:10:44 PM 36.7372 -121.2344 131° Southeast 457 526 30,400 1,171 Climbing Oakland Center
Wed 01:11:46 PM 36.6533 -121.1122 131° Southeast 461 531 31,600 1,258 Climbing Oakland Center
Wed 01:12:48 PM 36.5694 -120.9906 131° Southeast 463 533 33,000 1,366 Climbing Oakland Center
Wed 01:13:49 PM 36.4700 -120.8469 131° Southeast 460 529 34,400 1,171 Climbing Oakland Center
Wed 01:14:51 PM 36.3856 -120.7253 131° Southeast 460 529 35,400 1,122 Climbing Oakland Center
Wed 01:15:52 PM 36.3019 -120.6064 131° Southeast 460 529 36,700 780 Climbing Oakland Center
Wed 01:16:54 PM 36.2189 -120.4881 131° Southeast 459 528 37,000 145 Climbing Oakland Center
Wed 01:17:56 PM 36.1325 -120.3658 131° Southeast 466 536 37,000  Level Oakland Center
Wed 01:18:57 PM 36.0444 -120.2414 131° Southeast 475 547 37,000  Level Oakland Center
Wed 01:19:59 PM 35.9564 -120.1150 131° Southeast 481 554 37,000  Level Oakland Center
Wed 01:21:01 PM 35.8678 -119.9900 131° Southeast 482 555 37,000  Level Oakland Center
Wed 01:22:02 PM 35.7781 -119.8639 131° Southeast 483 556 37,000  Level Oakland Center
Wed 01:23:04 PM 35.6714 -119.7164 132° Southeast 482 555 37,000  Level Oakland Center
Wed 01:24:10 PM 35.5850 -119.5961 131° Southeast 473 544 37,000  Level Los Angeles Center
Wed 01:25:12 PM 35.4972 -119.4761 132° Southeast 472 543 37,000  Level Los Angeles Center
Wed 01:26:14 PM 35.4092 -119.3544 132° Southeast 473 544 37,000  Level Los Angeles Center
Wed 01:27:16 PM 35.3036 -119.2097 132° Southeast 475 547 37,000  Level Los Angeles Center
Wed 01:28:19 PM 35.2153 -119.0889 132° Southeast 475 547 37,000  Level Los Angeles Center
Wed 01:29:21 PM 35.1283 -118.9711 132° Southeast 471 542 37,000  Level Los Angeles Center
Wed 01:30:23 PM 35.0417 -118.8539 132° Southeast 470 541 37,000  Level Los Angeles Center
Wed 01:31:25 PM 34.9567 -118.7378 132° Southeast 461 531 37,000  Level Los Angeles Center
Wed 01:32:27 PM 34.8558 -118.6039 133° Southeast 460 529 37,000  Level Los Angeles Center
Wed 01:33:30 PM 34.7697 -118.4886 132° Southeast 460 529 37,000  Level Los Angeles Center
Wed 01:34:32 PM 34.6900 -118.3833 133° Southeast 460 529 37,000  Level Los Angeles Center
Wed 01:35:34 PM 34.5961 -118.2589 132° Southeast 461 531 37,000  Level Los Angeles Center
Wed 01:36:36 PM 34.5014 -118.1331 132° Southeast 461 531 37,000  Level Los Angeles Center
Wed 01:37:38 PM 34.4236 -118.0083 127° Southeast 478 550 37,000  Level Los Angeles Center
Wed 01:38:40 PM 34.3800 -117.8531 109° East 495 570 37,000  Level Los Angeles Center
Wed 01:39:42 PM 34.3369 -117.6692 106° East 498 573 37,000  Level Los Angeles Center
Wed 01:40:45 PM 34.2975 -117.5114 107° East 496 571 37,000  Level Los Angeles Center
Wed 01:41:47 PM 34.2572 -117.3517 107° East 495 570 37,000  Level Los Angeles Center
Wed 01:42:49 PM 34.2194 -117.1942 106° East 492 566 37,000  Level Los Angeles Center
Wed 01:43:51 PM 34.1789 -117.0317 107° East 491 565 37,000  Level Los Angeles Center
Wed 01:44:53 PM 34.1400 -116.8753 107° East 491 565 37,000  Level Los Angeles Center
Wed 01:45:55 PM 34.0936 -116.6900 107° East 491 565 37,000  Level Los Angeles Center
Wed 01:46:58 PM 34.0536 -116.5333 107° East 491 565 37,000  Level Los Angeles Center
Wed 01:48:00 PM 34.0136 -116.3775 107° East 490 564 37,000  Level Los Angeles Center
Wed 01:49:02 PM 33.9747 -116.2231 107° East 485 558 37,000  Level Los Angeles Center
Wed 01:50:04 PM 33.9356 -116.0647 107° East 486 559 37,000  Level Los Angeles Center
Wed 01:51:06 PM 33.8936 -115.9111 108° East 486 559 37,000  Level Los Angeles Center
Wed 01:52:08 PM 33.8467 -115.7264 107° East 486 559 37,000  Level Los Angeles Center
Wed 01:53:10 PM 33.8083 -115.5683 106° East 482 555 37,000  Level Los Angeles Center
Wed 01:54:13 PM 33.7694 -115.4131 107° East 487 560 37,000  Level Los Angeles Center
Wed 01:55:15 PM 33.7300 -115.2608 107° East 482 555 37,000  Level Los Angeles Center
Wed 01:56:17 PM 33.6892 -115.1094 108° East 480 552 37,000 -97 Level Los Angeles Center
Wed 01:57:19 PM 33.6494 -114.9575 107° East 479 551 36,800 -1,113 Descending Los Angeles Center
Wed 01:58:21 PM 33.6086 -114.8044 108° East 480 552 34,700 -2,256 Descending Los Angeles Center
Wed 01:59:24 PM 33.5700 -114.6189 104° East 478 550 32,100 -2,256 Descending Los Angeles Center
Wed 02:00:26 PM 33.5381 -114.4658 104° East 476 548 30,000 -1,984 Descending Los Angeles Center
Wed 02:01:28 PM 33.5097 -114.3139 103° East 470 541 28,000 -1,935 Descending Los Angeles Center
Wed 02:02:30 PM 33.4789 -114.1628 104° East 469 540 26,000 -1,731 Descending Los Angeles Center
Wed 02:03:12 PM 33.4569 -114.0414 102° East 469 540 25,000 -808 Descending Albuquerque Center
Wed 02:04:14 PM 33.4358 -113.8956 100° East 450 518 24,600 -1,306 Descending Albuquerque Center
Wed 02:05:16 PM 33.4172 -113.7425 98° East 462 532 22,300 -2,177 Descending Albuquerque Center
Wed 02:06:18 PM 33.3950 -113.5994 101° East 444 511 20,100 -2,112 Descending Albuquerque Center
Wed 02:07:21 PM 33.3750 -113.4569 100° East 439 505 17,900 -2,256 Descending Albuquerque Center
Wed 02:08:23 PM 33.3508 -113.2975 100° East 413 475 15,400 -2,226 Descending Albuquerque Center
Wed 02:09:25 PM 33.3336 -113.1747 99° East 385 443 13,300 -1,500 Descending Albuquerque Center
Wed 02:10:27 PM 33.3161 -113.0583 100° East 364 419 12,300 -968 Descending Albuquerque Center
Wed 02:11:29 PM 33.3000 -112.9508 100° East 340 391 11,300 -1,016 Descending Albuquerque Center
Wed 02:12:31 PM 33.2850 -112.8514 100° East 315 362 10,200 -629 Descending Albuquerque Center
Wed 02:13:33 PM 33.3036 -112.7592 76° East 300 345 10,000 -145 Descending Albuquerque Center
Wed 02:14:35 PM 33.3364 -112.6708 66° East 294 338 9,900 -720 Descending Albuquerque Center
Wed 02:15:38 PM 33.3717 -112.5800 65° Northeast 282 325 8,500 -912 Descending Albuquerque Center
Wed 02:16:40 PM 33.4014 -112.5022 65° Northeast 259 298 8,000 -823 Descending Albuquerque Center
Wed 02:17:42 PM 33.4294 -112.4111 70° East 248 285 6,800 -1,258 Descending Albuquerque Center
Wed 02:18:44 PM 33.4317 -112.3333 88° East 237 273 5,400 -1,258 Descending Albuquerque Center
Wed 02:19:46 PM 33.4381 -112.2561 84° East 236 272 4,200 -919 Descending Albuquerque Center
Wed 02:20:48 PM 33.4408 -112.1767 88° East 221 254 3,500 -843 Descending Albuquerque Center
Wed 02:21:47 PM 33.4333 -112.1167 99° East 183 211 2,500 -895 Descending Phoenix TRACON
Wed 02:22:42 PM 33.4333 -112.0667 90° East 165 190 1,800 -764 Descending Phoenix TRACON
Wed 02:25:00 PM 33.3947 -112.0667 North  Level FlightAware Approximate

Login

Don't have an account? Register now (free) for customized features, flight alerts, and more!